Barfleur — FNIE — position and weather

sailwx.info

Track history (hours):
 
Tides and Currents Weather Stations Pressure Air Temp Water Temp Dewpoint Dewpoint Depression Visibility Wind Speed Wind Dir Waves Ship Positions

Barfleur

Operator: Brittany Ferries

Last reported at 2019-Feb-23 12:30 UTC. Time now 2019-Feb-23 16:47 UTC.
Position N 49°39' W 001°37'.

Length 158 m; draft 5.1 m.

Type: Ship. MMSI: 227289000.

Date/timePositionNaut miles runAvg speedWind from/ knotsBaromVisibWave heightAir tempDewpointWater temp
2019-Feb-23 12:30N 49°39' W 001°37'1315.3
2019-Feb-23 11:38N 49°53' W 001°37'216.5
2019-Feb-23 11:30N 49°55' W 001°38'1216.9
2019-Feb-23 10:48N 50°06' W 001°41'1317.6
2019-Feb-23 10:03N 50°19' W 001°46'117.6
2019-Feb-23 10:00N 50°20' W 001°47'917.7
2019-Feb-23 09:30N 50°29' W 001°50'917.0
2019-Feb-23 09:00N 50°37' W 001°54'511.0
2019-Feb-23 08:30N 50°42' W 001°57'2 2.8
2019-Feb-23 07:58N 50°42' W 001°59'0 0.0
2019-Feb-23 07:28N 50°42' W 001°59'0 0.0
2019-Feb-23 07:00N 50°42' W 001°59'0 0.0
2019-Feb-23 06:30N 50°42' W 001°59'0 0.0
2019-Feb-23 06:00N 50°42' W 001°59'0 0.0
2019-Feb-23 05:30N 50°42' W 001°59'0 0.0
2019-Feb-23 05:00N 50°42' W 001°59'0 0.0
2019-Feb-23 04:30N 50°42' W 001°59'0 0.0
2019-Feb-23 04:00N 50°42' W 001°59'0 0.0
2019-Feb-23 03:30N 50°42' W 001°59'0 0.0
2019-Feb-23 03:00N 50°42' W 001°59'0 0.0
2019-Feb-23 02:30N 50°42' W 001°59'0 0.0
2019-Feb-23 02:00N 50°42' W 001°59'0 0.0
2019-Feb-23 01:30N 50°42' W 001°59'0 0.0
2019-Feb-23 01:00N 50°42' W 001°59'0 0.0
2019-Feb-23 00:30N 50°42' W 001°59'0 0.0
2019-Feb-23 00:00N 50°42' W 001°59'0 0.0
2019-Feb-22 23:30N 50°42' W 001°59'0 0.0
2019-Feb-22 23:00N 50°42' W 001°59'0 0.0
2019-Feb-22 22:30N 50°42' W 001°59'0 0.0
2019-Feb-22 22:00N 50°42' W 001°59'1 1.1
2019-Feb-22 21:30N 50°42' W 001°59'611.5
2019-Feb-22 21:00N 50°37' W 001°54'917.9
2019-Feb-22 20:30N 50°29' W 001°51'917.7
2019-Feb-22 20:00N 50°20' W 001°49'918.0
2019-Feb-22 19:30N 50°11' W 001°47'918.0
2019-Feb-22 19:00N 50°02' W 001°44'917.8
2019-Feb-22 18:29N 49°53' W 001°43'917.7
2019-Feb-22 18:00N 49°44' W 001°40'4534.7
2019-Feb-22 16:42N 50°29' W 001°50'5112.3
2019-Feb-22 12:34N 49°39' W 001°37'0 6.5
2019-Feb-22 12:30N 49°40' W 001°37'815.3
2019-Feb-22 12:00N 49°47' W 001°37'918.3
2019-Feb-22 11:30N 49°56' W 001°40'917.9
2019-Feb-22 11:00N 50°05' W 001°43'917.4
2019-Feb-22 10:30N 50°13' W 001°45'917.2
2019-Feb-22 10:00N 50°22' W 001°48'817.0
2019-Feb-22 09:30N 50°30' W 001°51'916.5
2019-Feb-22 08:59N 50°38' W 001°54'4 8.8
2019-Feb-22 08:31N 50°42' W 001°57'1 2.5
2019-Feb-22 07:59N 50°42' W 001°59'0 0.0
2019-Feb-22 07:29N 50°42' W 001°59'0 0.0
2019-Feb-22 06:58N 50°42' W 001°59'0 0.0
2019-Feb-22 06:29N 50°42' W 001°59'0 0.0
2019-Feb-22 05:58N 50°42' W 001°59'0 0.0
2019-Feb-22 05:28N 50°42' W 001°59'0 0.0
2019-Feb-22 04:58N 50°42' W 001°59'0 0.0
2019-Feb-22 04:28N 50°42' W 001°59'0 0.0
2019-Feb-22 03:58N 50°42' W 001°59'0 0.0
2019-Feb-22 03:28N 50°42' W 001°59'0 0.0
2019-Feb-22 02:58N 50°42' W 001°59'0 0.0
2019-Feb-22 02:28N 50°42' W 001°59'0 0.0
2019-Feb-22 01:58N 50°42' W 001°59'0 0.0
2019-Feb-22 01:28N 50°42' W 001°59'0 0.0
2019-Feb-22 00:58N 50°42' W 001°59'0 0.0
2019-Feb-22 00:28N 50°42' W 001°59'0 0.0
2019-Feb-21 23:58N 50°42' W 001°59'0 0.0
2019-Feb-21 23:28N 50°42' W 001°59'0 0.0
2019-Feb-21 22:58N 50°42' W 001°59'0 0.0
2019-Feb-21 22:28N 50°42' W 001°59'0 0.0
2019-Feb-21 22:00N 50°42' W 001°59'0 0.2
2019-Feb-21 21:30N 50°42' W 001°59'5 9.5
2019-Feb-21 21:00N 50°39' W 001°55'917.6
2019-Feb-21 20:30N 50°30' W 001°50'917.4
2019-Feb-21 20:00N 50°22' W 001°47'917.9
2019-Feb-21 19:29N 50°12' W 001°46'918.0
2019-Feb-21 19:00N 50°04' W 001°45'1317.9
2019-Feb-21 18:18N 49°51' W 001°42'517.6
2019-Feb-21 18:00N 49°46' W 001°41'7 1.3
2019-Feb-21 12:30N 49°40' W 001°36'1017.3
2019-Feb-21 11:57N 49°50' W 001°35'1117.7
2019-Feb-21 11:20N 50°01' W 001°36'2817.8
2019-Feb-21 09:47N 50°27' W 001°49'517.5
2019-Feb-21 09:30N 50°31' W 001°51'816.3
2019-Feb-21 09:00N 50°39' W 001°55'4 8.5
2019-Feb-21 08:30N 50°42' W 001°59'0 0.1
2019-Feb-21 08:01N 50°42' W 001°59'0 0.0
2019-Feb-21 07:30N 50°42' W 001°59'0 0.0
2019-Feb-21 07:00N 50°42' W 001°59'2 3.3
2019-Feb-21 06:30N 50°42' W 001°57'612.2
2019-Feb-21 06:00N 50°36' W 001°53'713.7
2019-Feb-21 05:30N 50°29' W 001°51'4213.7
2019-Feb-21 02:28N 49°49' W 001°38'5 4.9
2019-Feb-21 01:22N 49°44' W 001°34'1 1.5
2019-Feb-21 00:29N 49°44' W 001°31'6 0.5
2019-Feb-20 12:40N 49°40' W 001°37'212.0
2019-Feb-20 12:31N 49°41' W 001°39'6116.9
2019-Feb-20 08:52N 50°41' W 001°57'2 6.3
2019-Feb-20 08:30N 50°42' W 001°59'0 0.0
2019-Feb-20 08:00N 50°42' W 001°59'0 0.0
2019-Feb-20 07:30N 50°42' W 001°59'0 0.0
2019-Feb-20 07:00N 50°42' W 001°59'2 3.7
2019-Feb-20 06:31N 50°41' W 001°57'815.1
2019-Feb-20 05:57N 50°34' W 001°51'915.5
2019-Feb-20 05:24N 50°25' W 001°49'3413.5
2019-Feb-20 02:53N 49°51' W 001°50'5 5.5
2019-Feb-20 01:58N 49°47' W 001°45'4 3.6
2019-Feb-20 00:58N 49°46' W 001°40'2 2.4
2019-Feb-19 23:58N 49°45' W 001°36'5 0.5
2019-Feb-19 12:31N 49°40' W 001°37'021.0
2019-Feb-19 12:31N 49°40' W 001°37'1214.8
2019-Feb-19 11:43N 49°51' W 001°40'517.5
2019-Feb-19 11:25N 49°57' W 001°41'1817.7
2019-Feb-19 10:25N 50°14' W 001°46'1317.8
2019-Feb-19 09:41N 50°27' W 001°49'317.7
2019-Feb-19 09:30N 50°30' W 001°50'817.3
2019-Feb-19 09:00N 50°38' W 001°54'510.4
2019-Feb-19 08:31N 50°42' W 001°59'0 0.5
2019-Feb-19 08:00N 50°42' W 001°59'0 0.0
2019-Feb-19 07:31N 50°42' W 001°59'0 0.0
2019-Feb-19 07:01N 50°42' W 001°59'2 3.9
2019-Feb-19 06:30N 50°41' W 001°57'713.9
2019-Feb-19 06:00N 50°35' W 001°52'815.1
2019-Feb-19 05:29N 50°27' W 001°50'4213.6
2019-Feb-19 02:22N 49°45' W 001°48'2 2.5
2019-Feb-19 01:24N 49°44' W 001°44'5 0.4
2019-Feb-18 12:25N 49°40' W 001°39'1316.1
2019-Feb-18 11:37N 49°53' W 001°40'1717.5
2019-Feb-18 10:37N 50°10' W 001°44'917.5
2019-Feb-18 10:07N 50°19' W 001°47'917.3
2019-Feb-18 09:34N 50°28' W 001°51'117.2
2019-Feb-18 09:30N 50°29' W 001°51'817.0
2019-Feb-18 09:00N 50°37' W 001°54'611.3
2019-Feb-18 08:30N 50°42' W 001°58'1 1.4
2019-Feb-18 08:00N 50°42' W 001°59'0 0.0
2019-Feb-18 07:27N 50°42' W 001°59'0 0.0
2019-Feb-18 07:01N 50°42' W 001°59'0 0.0
2019-Feb-18 06:30N 50°42' W 001°59'0 0.0
2019-Feb-18 06:01N 50°42' W 001°59'0 0.0
2019-Feb-18 05:31N 50°42' W 001°59'0 0.0
2019-Feb-18 05:01N 50°42' W 001°59'0 0.0
2019-Feb-18 04:31N 50°42' W 001°59'0 0.0
2019-Feb-18 04:01N 50°42' W 001°59'0 0.0
2019-Feb-18 03:30N 50°42' W 001°59'0 0.0
2019-Feb-18 03:01N 50°42' W 001°59'0 0.0
2019-Feb-18 02:30N 50°42' W 001°59'0 0.0
2019-Feb-18 02:01N 50°42' W 001°59'0 0.0
2019-Feb-18 01:30N 50°42' W 001°59'0 0.0
2019-Feb-18 01:01N 50°42' W 001°59'0 0.0
2019-Feb-18 00:30N 50°42' W 001°59'0 0.0
2019-Feb-18 00:00N 50°42' W 001°59'0 0.0
2019-Feb-17 23:31N 50°42' W 001°59'0 0.0
2019-Feb-17 23:01N 50°42' W 001°59'0 0.0
2019-Feb-17 22:31N 50°42' W 001°59'0 0.0
2019-Feb-17 22:00N 50°42' W 001°59'1 1.2
2019-Feb-17 21:31N 50°42' W 001°59'510.8
2019-Feb-17 21:00N 50°38' W 001°54'917.0
2019-Feb-17 20:30N 50°29' W 001°52'4917.0
2019-Feb-17 17:38N 49°41' W 001°39'1 0.2
2019-Feb-17 12:24N 49°40' W 001°39'816.2
2019-Feb-17 11:53N 49°49' W 001°41'1716.9
2019-Feb-17 10:53N 50°05' W 001°45'2517.0
2019-Feb-17 09:25N 50°30' W 001°51'717.4
2019-Feb-17 09:01N 50°37' W 001°54'612.0
2019-Feb-17 08:31N 50°42' W 001°58'1 2.0
2019-Feb-17 08:01N 50°42' W 001°59'0 0.0
2019-Feb-17 07:31N 50°42' W 001°59'0 0.0
2019-Feb-17 07:00N 50°42' W 001°59'2 3.4
2019-Feb-17 06:31N 50°42' W 001°57'713.1
2019-Feb-17 06:00N 50°36' W 001°53'916.4
2019-Feb-17 05:29N 50°27' W 001°51'714.3
2019-Feb-17 05:00N 50°20' W 001°50'714.0
2019-Feb-17 04:30N 50°13' W 001°50'714.2
2019-Feb-17 04:00N 50°06' W 001°49'714.4
2019-Feb-17 03:30N 49°59' W 001°49'714.2
2019-Feb-17 03:00N 49°52' W 001°46'4 7.4
2019-Feb-17 02:30N 49°48' W 001°47'1 1.7
2019-Feb-17 02:00N 49°48' W 001°47'1 1.5
2019-Feb-17 01:29N 49°47' W 001°48'1 1.9
2019-Feb-17 01:00N 49°46' W 001°47'6 2.4
2019-Feb-16 22:41N 49°44' W 001°39'1 2.3
2019-Feb-16 22:25N 49°44' W 001°38'1 1.9
2019-Feb-16 21:50N 49°43' W 001°36'3 0.4
2019-Feb-16 12:31N 49°40' W 001°37'112.5
2019-Feb-16 12:25N 49°40' W 001°39'1216.7
2019-Feb-16 11:42N 49°52' W 001°43'317.1
2019-Feb-16 11:30N 49°55' W 001°44'1015.9
2019-Feb-16 10:53N 50°05' W 001°47'2516.8
2019-Feb-16 09:25N 50°29' W 001°52'718.1
2019-Feb-16 09:00N 50°37' W 001°54'612.2
2019-Feb-16 08:30N 50°42' W 001°58'1 2.0
2019-Feb-16 08:00N 50°42' W 001°59'0 0.0
2019-Feb-16 07:30N 50°42' W 001°59'0 0.0
2019-Feb-16 07:00N 50°42' W 001°59'0 0.0
2019-Feb-16 06:30N 50°42' W 001°59'0 0.0
2019-Feb-16 06:00N 50°42' W 001°59'0 0.0
2019-Feb-16 05:31N 50°42' W 001°59'0 0.0
2019-Feb-16 05:00N 50°42' W 001°59'0 0.0
2019-Feb-16 04:30N 50°42' W 001°59'0 0.0
2019-Feb-16 04:00N 50°42' W 001°59'0 0.0
2019-Feb-16 03:30N 50°42' W 001°59'0 0.0
2019-Feb-16 03:01N 50°42' W 001°59'0 0.0
2019-Feb-16 02:31N 50°42' W 001°59'0 0.0
2019-Feb-16 02:00N 50°42' W 001°59'0 0.0
2019-Feb-16 01:30N 50°42' W 001°59'0 0.0
2019-Feb-16 01:00N 50°42' W 001°59'0 0.0
2019-Feb-16 00:31N 50°42' W 001°59'0 0.0
2019-Feb-16 00:00N 50°42' W 001°59'0 0.0
2019-Feb-15 23:31N 50°42' W 001°59'0 0.0
2019-Feb-15 23:00N 50°42' W 001°59'0 0.0
2019-Feb-15 22:30N 50°42' W 001°59'0 0.0
2019-Feb-15 22:00N 50°42' W 001°59'0 0.9
2019-Feb-15 21:30N 50°42' W 001°59'510.6
2019-Feb-15 21:00N 50°38' W 001°54'816.9
2019-Feb-15 20:30N 50°30' W 001°49'916.6
2019-Feb-15 19:58N 50°22' W 001°44'3517.6
2019-Feb-15 17:58N 49°47' W 001°35'814.2
2019-Feb-15 17:24N 49°39' W 001°37'0 0.2
2019-Feb-15 16:36N 49°39' W 001°37'0 0.0
2019-Feb-15 16:20N 49°39' W 001°37'0 0.0
2019-Feb-15 16:00N 49°39' W 001°37'0 0.0
2019-Feb-15 15:30N 49°39' W 001°37'0 0.0
2019-Feb-15 13:01N 49°39' W 001°37'0 0.0
2019-Feb-15 13:00N 49°39' W 001°37'4 4.6
2019-Feb-15 12:15N 49°42' W 001°40'415.8
2019-Feb-15 11:59N 49°46' W 001°40'816.0
2019-Feb-15 11:28N 49°54' W 001°40'816.1
2019-Feb-15 11:00N 50°02' W 001°40'817.4
2019-Feb-15 10:30N 50°10' W 001°43'917.2
2019-Feb-15 10:00N 50°18' W 001°47'917.3
2019-Feb-15 09:30N 50°27' W 001°50'918.0
2019-Feb-15 09:00N 50°35' W 001°53'713.9
2019-Feb-15 08:31N 50°42' W 001°57'2 3.2
2019-Feb-15 08:00N 50°42' W 001°59'0 0.0
2019-Feb-15 07:29N 50°42' W 001°59'0 0.0
2019-Feb-15 07:00N 50°42' W 001°59'0 0.0
2019-Feb-15 06:29N 50°42' W 001°59'0 0.0
2019-Feb-15 05:59N 50°42' W 001°59'0 0.0
2019-Feb-15 05:29N 50°42' W 001°59'0 0.0
2019-Feb-15 04:59N 50°42' W 001°59'0 0.0
2019-Feb-15 04:29N 50°42' W 001°59'0 0.0
2019-Feb-15 03:59N 50°42' W 001°59'0 0.0
2019-Feb-15 03:27N 50°42' W 001°59'0 0.0
2019-Feb-15 02:59N 50°42' W 001°59'0 0.0
2019-Feb-15 02:29N 50°42' W 001°59'0 0.0
2019-Feb-15 01:58N 50°42' W 001°59'0 0.0
2019-Feb-15 01:31N 50°42' W 001°59'0 0.0
2019-Feb-15 01:00N 50°42' W 001°59'0 0.0
2019-Feb-15 00:30N 50°42' W 001°59'0 0.0
2019-Feb-14 23:57N 50°42' W 001°59'0 0.0
2019-Feb-14 23:27N 50°42' W 001°59'0 0.0
2019-Feb-14 22:57N 50°42' W 001°59'0 0.0
2019-Feb-14 22:30N 50°42' W 001°59'0 0.0
2019-Feb-14 21:58N 50°42' W 001°59'0 0.2
2019-Feb-14 21:31N 50°42' W 001°60'4 8.3
2019-Feb-14 21:01N 50°39' W 001°55'815.9
2019-Feb-14 20:31N 50°32' W 001°51'917.6
2019-Feb-14 20:01N 50°23' W 001°48'918.0
2019-Feb-14 19:30N 50°14' W 001°46'918.1
2019-Feb-14 19:00N 50°05' W 001°43'1718.1
2019-Feb-14 18:03N 49°48' W 001°38'118.0
2019-Feb-14 18:00N 49°48' W 001°37'8 1.4
2019-Feb-14 12:27N 49°40' W 001°36'716.8
2019-Feb-14 12:00N 49°47' W 001°38'917.9
2019-Feb-14 11:30N 49°56' W 001°43'816.8
2019-Feb-14 11:00N 50°04' W 001°46'1415.9
2019-Feb-14 10:07N 50°18' W 001°48'216.0
2019-Feb-14 09:59N 50°20' W 001°49'1016.6
2019-Feb-14 09:24N 50°29' W 001°51'718.1
2019-Feb-14 09:00N 50°36' W 001°54'612.1
2019-Feb-14 08:30N 50°42' W 001°58'1 2.4
2019-Feb-14 07:59N 50°42' W 001°59'0 0.0
2019-Feb-14 07:29N 50°42' W 001°59'0 0.0
2019-Feb-14 07:00N 50°42' W 001°59'2 3.1
2019-Feb-14 06:30N 50°42' W 001°57'612.7
2019-Feb-14 06:00N 50°36' W 001°53'916.2
2019-Feb-14 05:29N 50°28' W 001°48'714.0
2019-Feb-14 04:58N 50°22' W 001°43'2713.7
2019-Feb-14 03:01N 49°56' W 001°33'913.4
2019-Feb-14 02:21N 49°47' W 001°31'1 3.1
2019-Feb-14 02:00N 49°46' W 001°32'2 2.3
2019-Feb-14 01:19N 49°46' W 001°35'3 2.0
2019-Feb-14 00:03N 49°45' W 001°38'1 1.8
2019-Feb-13 23:45N 49°45' W 001°39'1 1.6
2019-Feb-13 22:57N 49°44' W 001°41'1 1.1
2019-Feb-13 22:03N 49°44' W 001°42'0 3.2
2019-Feb-13 22:00N 49°44' W 001°43'5 9.3
2019-Feb-13 21:30N 49°40' W 001°38'2 0.3
2019-Feb-13 15:43N 49°39' W 001°37'1 0.2
2019-Feb-13 12:33N 49°39' W 001°37'  
Track history (hours):
 
Tides and Currents Weather Stations Pressure Air Temp Water Temp Dewpoint Dewpoint Depression Visibility Wind Speed Wind Dir Waves Ship Positions

Barfleur

Operator: Brittany Ferries

Last reported at 2019-Feb-23 12:30 UTC. Time now 2019-Feb-23 16:47 UTC.
Position N 49°39' W 001°37'.

Length 158 m; draft 5.1 m.

Type: Ship. MMSI: 227289000.

Date/timePositionNaut miles runAvg speedWind from/ knotsBaromVisibWave heightAir tempDewpointWater temp
2019-Feb-23 12:30N 49°39' W 001°37'1315.3
2019-Feb-23 11:38N 49°53' W 001°37'216.5
2019-Feb-23 11:30N 49°55' W 001°38'1216.9
2019-Feb-23 10:48N 50°06' W 001°41'1317.6
2019-Feb-23 10:03N 50°19' W 001°46'117.6
2019-Feb-23 10:00N 50°20' W 001°47'917.7
2019-Feb-23 09:30N 50°29' W 001°50'917.0
2019-Feb-23 09:00N 50°37' W 001°54'511.0
2019-Feb-23 08:30N 50°42' W 001°57'2 2.8
2019-Feb-23 07:58N 50°42' W 001°59'0 0.0
2019-Feb-23 07:28N 50°42' W 001°59'0 0.0
2019-Feb-23 07:00N 50°42' W 001°59'0 0.0
2019-Feb-23 06:30N 50°42' W 001°59'0 0.0
2019-Feb-23 06:00N 50°42' W 001°59'0 0.0
2019-Feb-23 05:30N 50°42' W 001°59'0 0.0
2019-Feb-23 05:00N 50°42' W 001°59'0 0.0
2019-Feb-23 04:30N 50°42' W 001°59'0 0.0
2019-Feb-23 04:00N 50°42' W 001°59'0 0.0
2019-Feb-23 03:30N 50°42' W 001°59'0 0.0
2019-Feb-23 03:00N 50°42' W 001°59'0 0.0
2019-Feb-23 02:30N 50°42' W 001°59'0 0.0
2019-Feb-23 02:00N 50°42' W 001°59'0 0.0
2019-Feb-23 01:30N 50°42' W 001°59'0 0.0
2019-Feb-23 01:00N 50°42' W 001°59'0 0.0
2019-Feb-23 00:30N 50°42' W 001°59'0 0.0
2019-Feb-23 00:00N 50°42' W 001°59'0 0.0
2019-Feb-22 23:30N 50°42' W 001°59'0 0.0
2019-Feb-22 23:00N 50°42' W 001°59'0 0.0
2019-Feb-22 22:30N 50°42' W 001°59'0 0.0
2019-Feb-22 22:00N 50°42' W 001°59'1 1.1
2019-Feb-22 21:30N 50°42' W 001°59'611.5
2019-Feb-22 21:00N 50°37' W 001°54'917.9
2019-Feb-22 20:30N 50°29' W 001°51'917.7
2019-Feb-22 20:00N 50°20' W 001°49'918.0
2019-Feb-22 19:30N 50°11' W 001°47'918.0
2019-Feb-22 19:00N 50°02' W 001°44'917.8
2019-Feb-22 18:29N 49°53' W 001°43'917.7
2019-Feb-22 18:00N 49°44' W 001°40'4534.7
2019-Feb-22 16:42N 50°29' W 001°50'5112.3
2019-Feb-22 12:34N 49°39' W 001°37'0 6.5
2019-Feb-22 12:30N 49°40' W 001°37'815.3
2019-Feb-22 12:00N 49°47' W 001°37'918.3
2019-Feb-22 11:30N 49°56' W 001°40'917.9
2019-Feb-22 11:00N 50°05' W 001°43'917.4
2019-Feb-22 10:30N 50°13' W 001°45'917.2
2019-Feb-22 10:00N 50°22' W 001°48'817.0
2019-Feb-22 09:30N 50°30' W 001°51'916.5
2019-Feb-22 08:59N 50°38' W 001°54'4 8.8
2019-Feb-22 08:31N 50°42' W 001°57'1 2.5
2019-Feb-22 07:59N 50°42' W 001°59'0 0.0
2019-Feb-22 07:29N 50°42' W 001°59'0 0.0
2019-Feb-22 06:58N 50°42' W 001°59'0 0.0
2019-Feb-22 06:29N 50°42' W 001°59'0 0.0
2019-Feb-22 05:58N 50°42' W 001°59'0 0.0
2019-Feb-22 05:28N 50°42' W 001°59'0 0.0
2019-Feb-22 04:58N 50°42' W 001°59'0 0.0
2019-Feb-22 04:28N 50°42' W 001°59'0 0.0
2019-Feb-22 03:58N 50°42' W 001°59'0 0.0
2019-Feb-22 03:28N 50°42' W 001°59'0 0.0
2019-Feb-22 02:58N 50°42' W 001°59'0 0.0
2019-Feb-22 02:28N 50°42' W 001°59'0 0.0
2019-Feb-22 01:58N 50°42' W 001°59'0 0.0
2019-Feb-22 01:28N 50°42' W 001°59'0 0.0
2019-Feb-22 00:58N 50°42' W 001°59'0 0.0
2019-Feb-22 00:28N 50°42' W 001°59'0 0.0
2019-Feb-21 23:58N 50°42' W 001°59'0 0.0
2019-Feb-21 23:28N 50°42' W 001°59'0 0.0
2019-Feb-21 22:58N 50°42' W 001°59'0 0.0
2019-Feb-21 22:28N 50°42' W 001°59'0 0.0
2019-Feb-21 22:00N 50°42' W 001°59'0 0.2
2019-Feb-21 21:30N 50°42' W 001°59'5 9.5
2019-Feb-21 21:00N 50°39' W 001°55'917.6
2019-Feb-21 20:30N 50°30' W 001°50'917.4
2019-Feb-21 20:00N 50°22' W 001°47'917.9
2019-Feb-21 19:29N 50°12' W 001°46'918.0
2019-Feb-21 19:00N 50°04' W 001°45'1317.9
2019-Feb-21 18:18N 49°51' W 001°42'517.6
2019-Feb-21 18:00N 49°46' W 001°41'7 1.3
2019-Feb-21 12:30N 49°40' W 001°36'1017.3
2019-Feb-21 11:57N 49°50' W 001°35'1117.7
2019-Feb-21 11:20N 50°01' W 001°36'2817.8
2019-Feb-21 09:47N 50°27' W 001°49'517.5
2019-Feb-21 09:30N 50°31' W 001°51'816.3
2019-Feb-21 09:00N 50°39' W 001°55'4 8.5
2019-Feb-21 08:30N 50°42' W 001°59'0 0.1
2019-Feb-21 08:01N 50°42' W 001°59'0 0.0
2019-Feb-21 07:30N 50°42' W 001°59'0 0.0
2019-Feb-21 07:00N 50°42' W 001°59'2 3.3
2019-Feb-21 06:30N 50°42' W 001°57'612.2
2019-Feb-21 06:00N 50°36' W 001°53'713.7
2019-Feb-21 05:30N 50°29' W 001°51'4213.7
2019-Feb-21 02:28N 49°49' W 001°38'5 4.9
2019-Feb-21 01:22N 49°44' W 001°34'1 1.5
2019-Feb-21 00:29N 49°44' W 001°31'6 0.5
2019-Feb-20 12:40N 49°40' W 001°37'212.0
2019-Feb-20 12:31N 49°41' W 001°39'6116.9
2019-Feb-20 08:52N 50°41' W 001°57'2 6.3
2019-Feb-20 08:30N 50°42' W 001°59'0 0.0
2019-Feb-20 08:00N 50°42' W 001°59'0 0.0
2019-Feb-20 07:30N 50°42' W 001°59'0 0.0
2019-Feb-20 07:00N 50°42' W 001°59'2 3.7
2019-Feb-20 06:31N 50°41' W 001°57'815.1
2019-Feb-20 05:57N 50°34' W 001°51'915.5
2019-Feb-20 05:24N 50°25' W 001°49'3413.5
2019-Feb-20 02:53N 49°51' W 001°50'5 5.5
2019-Feb-20 01:58N 49°47' W 001°45'4 3.6
2019-Feb-20 00:58N 49°46' W 001°40'2 2.4
2019-Feb-19 23:58N 49°45' W 001°36'5 0.5
2019-Feb-19 12:31N 49°40' W 001°37'021.0
2019-Feb-19 12:31N 49°40' W 001°37'1214.8
2019-Feb-19 11:43N 49°51' W 001°40'517.5
2019-Feb-19 11:25N 49°57' W 001°41'1817.7
2019-Feb-19 10:25N 50°14' W 001°46'1317.8
2019-Feb-19 09:41N 50°27' W 001°49'317.7
2019-Feb-19 09:30N 50°30' W 001°50'817.3
2019-Feb-19 09:00N 50°38' W 001°54'510.4
2019-Feb-19 08:31N 50°42' W 001°59'0 0.5
2019-Feb-19 08:00N 50°42' W 001°59'0 0.0
2019-Feb-19 07:31N 50°42' W 001°59'0 0.0
2019-Feb-19 07:01N 50°42' W 001°59'2 3.9
2019-Feb-19 06:30N 50°41' W 001°57'713.9
2019-Feb-19 06:00N 50°35' W 001°52'815.1
2019-Feb-19 05:29N 50°27' W 001°50'4213.6
2019-Feb-19 02:22N 49°45' W 001°48'2 2.5
2019-Feb-19 01:24N 49°44' W 001°44'5 0.4
2019-Feb-18 12:25N 49°40' W 001°39'1316.1
2019-Feb-18 11:37N 49°53' W 001°40'1717.5
2019-Feb-18 10:37N 50°10' W 001°44'917.5
2019-Feb-18 10:07N 50°19' W 001°47'917.3
2019-Feb-18 09:34N 50°28' W 001°51'117.2
2019-Feb-18 09:30N 50°29' W 001°51'817.0
2019-Feb-18 09:00N 50°37' W 001°54'611.3
2019-Feb-18 08:30N 50°42' W 001°58'1 1.4
2019-Feb-18 08:00N 50°42' W 001°59'0 0.0
2019-Feb-18 07:27N 50°42' W 001°59'0 0.0
2019-Feb-18 07:01N 50°42' W 001°59'0 0.0
2019-Feb-18 06:30N 50°42' W 001°59'0 0.0
2019-Feb-18 06:01N 50°42' W 001°59'0 0.0
2019-Feb-18 05:31N 50°42' W 001°59'0 0.0
2019-Feb-18 05:01N 50°42' W 001°59'0 0.0
2019-Feb-18 04:31N 50°42' W 001°59'0 0.0
2019-Feb-18 04:01N 50°42' W 001°59'0 0.0
2019-Feb-18 03:30N 50°42' W 001°59'0 0.0
2019-Feb-18 03:01N 50°42' W 001°59'0 0.0
2019-Feb-18 02:30N 50°42' W 001°59'0 0.0
2019-Feb-18 02:01N 50°42' W 001°59'0 0.0
2019-Feb-18 01:30N 50°42' W 001°59'0 0.0
2019-Feb-18 01:01N 50°42' W 001°59'0 0.0
2019-Feb-18 00:30N 50°42' W 001°59'0 0.0
2019-Feb-18 00:00N 50°42' W 001°59'0 0.0
2019-Feb-17 23:31N 50°42' W 001°59'0 0.0
2019-Feb-17 23:01N 50°42' W 001°59'0 0.0
2019-Feb-17 22:31N 50°42' W 001°59'0 0.0
2019-Feb-17 22:00N 50°42' W 001°59'1 1.2
2019-Feb-17 21:31N 50°42' W 001°59'510.8
2019-Feb-17 21:00N 50°38' W 001°54'917.0
2019-Feb-17 20:30N 50°29' W 001°52'4917.0
2019-Feb-17 17:38N 49°41' W 001°39'1 0.2
2019-Feb-17 12:24N 49°40' W 001°39'816.2
2019-Feb-17 11:53N 49°49' W 001°41'1716.9
2019-Feb-17 10:53N 50°05' W 001°45'2517.0
2019-Feb-17 09:25N 50°30' W 001°51'717.4
2019-Feb-17 09:01N 50°37' W 001°54'612.0
2019-Feb-17 08:31N 50°42' W 001°58'1 2.0
2019-Feb-17 08:01N 50°42' W 001°59'0 0.0
2019-Feb-17 07:31N 50°42' W 001°59'0 0.0
2019-Feb-17 07:00N 50°42' W 001°59'2 3.4
2019-Feb-17 06:31N 50°42' W 001°57'713.1
2019-Feb-17 06:00N 50°36' W 001°53'916.4
2019-Feb-17 05:29N 50°27' W 001°51'714.3
2019-Feb-17 05:00N 50°20' W 001°50'714.0
2019-Feb-17 04:30N 50°13' W 001°50'714.2
2019-Feb-17 04:00N 50°06' W 001°49'714.4
2019-Feb-17 03:30N 49°59' W 001°49'714.2
2019-Feb-17 03:00N 49°52' W 001°46'4 7.4
2019-Feb-17 02:30N 49°48' W 001°47'1 1.7
2019-Feb-17 02:00N 49°48' W 001°47'1 1.5
2019-Feb-17 01:29N 49°47' W 001°48'1 1.9
2019-Feb-17 01:00N 49°46' W 001°47'6 2.4
2019-Feb-16 22:41N 49°44' W 001°39'1 2.3
2019-Feb-16 22:25N 49°44' W 001°38'1 1.9
2019-Feb-16 21:50N 49°43' W 001°36'3 0.4
2019-Feb-16 12:31N 49°40' W 001°37'112.5
2019-Feb-16 12:25N 49°40' W 001°39'1216.7
2019-Feb-16 11:42N 49°52' W 001°43'317.1
2019-Feb-16 11:30N 49°55' W 001°44'1015.9
2019-Feb-16 10:53N 50°05' W 001°47'2516.8
2019-Feb-16 09:25N 50°29' W 001°52'718.1
2019-Feb-16 09:00N 50°37' W 001°54'612.2
2019-Feb-16 08:30N 50°42' W 001°58'1 2.0
2019-Feb-16 08:00N 50°42' W 001°59'0 0.0
2019-Feb-16 07:30N 50°42' W 001°59'0 0.0
2019-Feb-16 07:00N 50°42' W 001°59'0 0.0
2019-Feb-16 06:30N 50°42' W 001°59'0 0.0
2019-Feb-16 06:00N 50°42' W 001°59'0 0.0
2019-Feb-16 05:31N 50°42' W 001°59'0 0.0
2019-Feb-16 05:00N 50°42' W 001°59'0 0.0
2019-Feb-16 04:30N 50°42' W 001°59'0 0.0
2019-Feb-16 04:00N 50°42' W 001°59'0 0.0
2019-Feb-16 03:30N 50°42' W 001°59'0 0.0
2019-Feb-16 03:01N 50°42' W 001°59'0 0.0
2019-Feb-16 02:31N 50°42' W 001°59'0 0.0
2019-Feb-16 02:00N 50°42' W 001°59'0 0.0
2019-Feb-16 01:30N 50°42' W 001°59'0 0.0
2019-Feb-16 01:00N 50°42' W 001°59'0 0.0
2019-Feb-16 00:31N 50°42' W 001°59'0 0.0
2019-Feb-16 00:00N 50°42' W 001°59'0 0.0
2019-Feb-15 23:31N 50°42' W 001°59'0 0.0
2019-Feb-15 23:00N 50°42' W 001°59'0 0.0
2019-Feb-15 22:30N 50°42' W 001°59'0 0.0
2019-Feb-15 22:00N 50°42' W 001°59'0 0.9
2019-Feb-15 21:30N 50°42' W 001°59'510.6
2019-Feb-15 21:00N 50°38' W 001°54'816.9
2019-Feb-15 20:30N 50°30' W 001°49'916.6
2019-Feb-15 19:58N 50°22' W 001°44'3517.6
2019-Feb-15 17:58N 49°47' W 001°35'814.2
2019-Feb-15 17:24N 49°39' W 001°37'0 0.2
2019-Feb-15 16:36N 49°39' W 001°37'0 0.0
2019-Feb-15 16:20N 49°39' W 001°37'0 0.0
2019-Feb-15 16:00N 49°39' W 001°37'0 0.0
2019-Feb-15 15:30N 49°39' W 001°37'0 0.0
2019-Feb-15 13:01N 49°39' W 001°37'0 0.0
2019-Feb-15 13:00N 49°39' W 001°37'4 4.6
2019-Feb-15 12:15N 49°42' W 001°40'415.8
2019-Feb-15 11:59N 49°46' W 001°40'816.0
2019-Feb-15 11:28N 49°54' W 001°40'816.1
2019-Feb-15 11:00N 50°02' W 001°40'817.4
2019-Feb-15 10:30N 50°10' W 001°43'917.2
2019-Feb-15 10:00N 50°18' W 001°47'917.3
2019-Feb-15 09:30N 50°27' W 001°50'918.0
2019-Feb-15 09:00N 50°35' W 001°53'713.9
2019-Feb-15 08:31N 50°42' W 001°57'2 3.2
2019-Feb-15 08:00N 50°42' W 001°59'0 0.0
2019-Feb-15 07:29N 50°42' W 001°59'0 0.0
2019-Feb-15 07:00N 50°42' W 001°59'0 0.0
2019-Feb-15 06:29N 50°42' W 001°59'0 0.0
2019-Feb-15 05:59N 50°42' W 001°59'0 0.0
2019-Feb-15 05:29N 50°42' W 001°59'0 0.0
2019-Feb-15 04:59N 50°42' W 001°59'0 0.0
2019-Feb-15 04:29N 50°42' W 001°59'0 0.0
2019-Feb-15 03:59N 50°42' W 001°59'0 0.0
2019-Feb-15 03:27N 50°42' W 001°59'0 0.0
2019-Feb-15 02:59N 50°42' W 001°59'0 0.0
2019-Feb-15 02:29N 50°42' W 001°59'0 0.0
2019-Feb-15 01:58N 50°42' W 001°59'0 0.0
2019-Feb-15 01:31N 50°42' W 001°59'0 0.0
2019-Feb-15 01:00N 50°42' W 001°59'0 0.0
2019-Feb-15 00:30N 50°42' W 001°59'0 0.0
2019-Feb-14 23:57N 50°42' W 001°59'0 0.0
2019-Feb-14 23:27N 50°42' W 001°59'0 0.0
2019-Feb-14 22:57N 50°42' W 001°59'0 0.0
2019-Feb-14 22:30N 50°42' W 001°59'0 0.0
2019-Feb-14 21:58N 50°42' W 001°59'0 0.2
2019-Feb-14 21:31N 50°42' W 001°60'4 8.3
2019-Feb-14 21:01N 50°39' W 001°55'815.9
2019-Feb-14 20:31N 50°32' W 001°51'917.6
2019-Feb-14 20:01N 50°23' W 001°48'918.0
2019-Feb-14 19:30N 50°14' W 001°46'918.1
2019-Feb-14 19:00N 50°05' W 001°43'1718.1
2019-Feb-14 18:03N 49°48' W 001°38'118.0
2019-Feb-14 18:00N 49°48' W 001°37'8 1.4
2019-Feb-14 12:27N 49°40' W 001°36'716.8
2019-Feb-14 12:00N 49°47' W 001°38'917.9
2019-Feb-14 11:30N 49°56' W 001°43'816.8
2019-Feb-14 11:00N 50°04' W 001°46'1415.9
2019-Feb-14 10:07N 50°18' W 001°48'216.0
2019-Feb-14 09:59N 50°20' W 001°49'1016.6
2019-Feb-14 09:24N 50°29' W 001°51'718.1
2019-Feb-14 09:00N 50°36' W 001°54'612.1
2019-Feb-14 08:30N 50°42' W 001°58'1 2.4
2019-Feb-14 07:59N 50°42' W 001°59'0 0.0
2019-Feb-14 07:29N 50°42' W 001°59'0 0.0
2019-Feb-14 07:00N 50°42' W 001°59'2 3.1
2019-Feb-14 06:30N 50°42' W 001°57'612.7
2019-Feb-14 06:00N 50°36' W 001°53'916.2
2019-Feb-14 05:29N 50°28' W 001°48'714.0
2019-Feb-14 04:58N 50°22' W 001°43'2713.7
2019-Feb-14 03:01N 49°56' W 001°33'913.4
2019-Feb-14 02:21N 49°47' W 001°31'1 3.1
2019-Feb-14 02:00N 49°46' W 001°32'2 2.3
2019-Feb-14 01:19N 49°46' W 001°35'3 2.0
2019-Feb-14 00:03N 49°45' W 001°38'1 1.8
2019-Feb-13 23:45N 49°45' W 001°39'1 1.6
2019-Feb-13 22:57N 49°44' W 001°41'1 1.1
2019-Feb-13 22:03N 49°44' W 001°42'0 3.2
2019-Feb-13 22:00N 49°44' W 001°43'5 9.3
2019-Feb-13 21:30N 49°40' W 001°38'2 0.3
2019-Feb-13 15:43N 49°39' W 001°37'1 0.2
2019-Feb-13 12:33N 49°39' W 001°37'  

Dump ship's entire track history